sensor_id;sensor_type;location;lat;lon;timestamp;temperature;humidity
3466;DHT22;1747;48.884;9.160;2023-04-25T00:01:55;9.80;99.90
3466;DHT22;1747;48.884;9.160;2023-04-25T00:04:24;9.70;99.90
3466;DHT22;1747;48.884;9.160;2023-04-25T00:06:53;9.70;99.90
3466;DHT22;1747;48.884;9.160;2023-04-25T00:09:20;9.70;99.90
3466;DHT22;1747;48.884;9.160;2023-04-25T00:11:46;9.70;99.90
3466;DHT22;1747;48.884;9.160;2023-04-25T00:14:13;9.80;99.90
3466;DHT22;1747;48.884;9.160;2023-04-25T00:16:40;9.70;99.90
3466;DHT22;1747;48.884;9.160;2023-04-25T00:19:09;9.70;99.90
3466;DHT22;1747;48.884;9.160;2023-04-25T00:21:38;9.70;99.90
3466;DHT22;1747;48.884;9.160;2023-04-25T00:24:06;9.70;99.90
3466;DHT22;1747;48.884;9.160;2023-04-25T00:26:33;9.70;99.90
3466;DHT22;1747;48.884;9.160;2023-04-25T00:29:00;9.60;99.90
3466;DHT22;1747;48.884;9.160;2023-04-25T00:31:27;9.60;99.90
3466;DHT22;1747;48.884;9.160;2023-04-25T00:33:54;9.60;99.90
3466;DHT22;1747;48.884;9.160;2023-04-25T00:36:21;9.60;99.90
3466;DHT22;1747;48.884;9.160;2023-04-25T00:38:49;9.60;99.90
3466;DHT22;1747;48.884;9.160;2023-04-25T00:41:16;9.60;99.90
3466;DHT22;1747;48.884;9.160;2023-04-25T00:43:44;9.60;99.90
3466;DHT22;1747;48.884;9.160;2023-04-25T00:46:11;9.60;99.90
3466;DHT22;1747;48.884;9.160;2023-04-25T00:48:38;9.60;99.90
3466;DHT22;1747;48.884;9.160;2023-04-25T00:51:05;9.50;99.90
3466;DHT22;1747;48.884;9.160;2023-04-25T00:53:32;9.50;99.90
3466;DHT22;1747;48.884;9.160;2023-04-25T00:56:01;9.50;99.90
3466;DHT22;1747;48.884;9.160;2023-04-25T00:58:27;9.50;99.90
3466;DHT22;1747;48.884;9.160;2023-04-25T01:00:55;9.50;99.90
3466;DHT22;1747;48.884;9.160;2023-04-25T01:03:22;9.50;99.90
3466;DHT22;1747;48.884;9.160;2023-04-25T01:05:51;9.50;99.90
3466;DHT22;1747;48.884;9.160;2023-04-25T01:08:18;9.50;99.90
3466;DHT22;1747;48.884;9.160;2023-04-25T01:10:45;9.40;99.90
3466;DHT22;1747;48.884;9.160;2023-04-25T01:13:13;9.30;99.90
3466;DHT22;1747;48.884;9.160;2023-04-25T01:15:40;9.20;99.90
3466;DHT22;1747;48.884;9.160;2023-04-25T01:18:07;9.20;99.90
3466;DHT22;1747;48.884;9.160;2023-04-25T01:20:33;9.30;99.90
3466;DHT22;1747;48.884;9.160;2023-04-25T01:23:02;9.30;99.90
3466;DHT22;1747;48.884;9.160;2023-04-25T01:25:29;9.30;99.90
3466;DHT22;1747;48.884;9.160;2023-04-25T01:27:57;9.40;99.90
3466;DHT22;1747;48.884;9.160;2023-04-25T01:30:25;9.40;99.90
3466;DHT22;1747;48.884;9.160;2023-04-25T01:32:54;9.40;99.90
3466;DHT22;1747;48.884;9.160;2023-04-25T01:35:22;9.40;99.90
3466;DHT22;1747;48.884;9.160;2023-04-25T01:37:51;9.40;99.90
3466;DHT22;1747;48.884;9.160;2023-04-25T01:40:20;9.30;99.90
3466;DHT22;1747;48.884;9.160;2023-04-25T01:42:48;9.30;99.90
3466;DHT22;1747;48.884;9.160;2023-04-25T01:45:15;9.30;99.90
3466;DHT22;1747;48.884;9.160;2023-04-25T01:47:42;9.30;99.90
3466;DHT22;1747;48.884;9.160;2023-04-25T01:50:12;9.30;99.90
3466;DHT22;1747;48.884;9.160;2023-04-25T01:52:39;9.30;99.90
3466;DHT22;1747;48.884;9.160;2023-04-25T01:55:07;9.30;99.90
3466;DHT22;1747;48.884;9.160;2023-04-25T01:57:35;9.30;99.90
3466;DHT22;1747;48.884;9.160;2023-04-25T02:00:04;9.30;99.90
3466;DHT22;1747;48.884;9.160;2023-04-25T02:02:32;9.30;99.90
3466;DHT22;1747;48.884;9.160;2023-04-25T02:04:58;9.30;99.90
3466;DHT22;1747;48.884;9.160;2023-04-25T02:07:26;9.30;99.90
3466;DHT22;1747;48.884;9.160;2023-04-25T02:09:53;9.40;99.90
3466;DHT22;1747;48.884;9.160;2023-04-25T02:12:20;9.50;99.90
3466;DHT22;1747;48.884;9.160;2023-04-25T02:14:48;9.50;99.90
3466;DHT22;1747;48.884;9.160;2023-04-25T02:17:15;9.50;99.90
3466;DHT22;1747;48.884;9.160;2023-04-25T02:19:42;9.60;99.90
3466;DHT22;1747;48.884;9.160;2023-04-25T02:22:09;9.50;99.90
3466;DHT22;1747;48.884;9.160;2023-04-25T02:24:36;9.60;99.90
3466;DHT22;1747;48.884;9.160;2023-04-25T02:27:03;9.50;99.90
3466;DHT22;1747;48.884;9.160;2023-04-25T02:29:30;9.30;99.90
3466;DHT22;1747;48.884;9.160;2023-04-25T02:31:58;9.30;99.90
3466;DHT22;1747;48.884;9.160;2023-04-25T02:34:25;9.30;99.90
3466;DHT22;1747;48.884;9.160;2023-04-25T02:36:51;9.30;99.90
3466;DHT22;1747;48.884;9.160;2023-04-25T02:39:18;9.20;99.90
3466;DHT22;1747;48.884;9.160;2023-04-25T02:41:47;9.40;99.90
3466;DHT22;1747;48.884;9.160;2023-04-25T02:44:14;9.40;99.90
3466;DHT22;1747;48.884;9.160;2023-04-25T02:46:41;9.40;99.90
3466;DHT22;1747;48.884;9.160;2023-04-25T02:49:09;9.40;99.90
3466;DHT22;1747;48.884;9.160;2023-04-25T02:51:36;9.30;99.90
3466;DHT22;1747;48.884;9.160;2023-04-25T02:54:03;9.30;99.90
3466;DHT22;1747;48.884;9.160;2023-04-25T02:56:30;9.30;99.90
3466;DHT22;1747;48.884;9.160;2023-04-25T02:58:57;9.40;99.90
3466;DHT22;1747;48.884;9.160;2023-04-25T03:01:24;9.40;99.90
3466;DHT22;1747;48.884;9.160;2023-04-25T03:03:50;9.40;99.90
3466;DHT22;1747;48.884;9.160;2023-04-25T03:06:18;9.30;99.90
3466;DHT22;1747;48.884;9.160;2023-04-25T03:08:45;9.30;99.90
3466;DHT22;1747;48.884;9.160;2023-04-25T03:11:15;9.40;99.90
3466;DHT22;1747;48.884;9.160;2023-04-25T03:13:41;9.50;99.90
3466;DHT22;1747;48.884;9.160;2023-04-25T03:16:08;9.50;99.90
3466;DHT22;1747;48.884;9.160;2023-04-25T03:18:35;9.60;99.90
3466;DHT22;1747;48.884;9.160;2023-04-25T03:21:02;9.50;99.90
3466;DHT22;1747;48.884;9.160;2023-04-25T03:23:30;9.40;99.90
3466;DHT22;1747;48.884;9.160;2023-04-25T03:25:57;9.40;99.90
3466;DHT22;1747;48.884;9.160;2023-04-25T03:28:24;9.50;99.90
3466;DHT22;1747;48.884;9.160;2023-04-25T03:30:50;9.50;99.90
3466;DHT22;1747;48.884;9.160;2023-04-25T03:33:17;9.40;99.90
3466;DHT22;1747;48.884;9.160;2023-04-25T03:35:44;9.40;99.90
3466;DHT22;1747;48.884;9.160;2023-04-25T03:38:11;9.50;99.90
3466;DHT22;1747;48.884;9.160;2023-04-25T03:40:39;9.50;99.90
3466;DHT22;1747;48.884;9.160;2023-04-25T03:43:06;9.60;99.90
3466;DHT22;1747;48.884;9.160;2023-04-25T03:45:32;9.50;99.90
3466;DHT22;1747;48.884;9.160;2023-04-25T03:47:59;9.60;99.90
3466;DHT22;1747;48.884;9.160;2023-04-25T03:50:26;9.50;99.90
3466;DHT22;1747;48.884;9.160;2023-04-25T03:52:53;9.60;99.90
3466;DHT22;1747;48.884;9.160;2023-04-25T03:55:20;9.60;99.90
3466;DHT22;1747;48.884;9.160;2023-04-25T03:57:48;9.50;99.90
3466;DHT22;1747;48.884;9.160;2023-04-25T04:00:15;9.50;99.90
3466;DHT22;1747;48.884;9.160;2023-04-25T04:02:42;9.50;99.90
3466;DHT22;1747;48.884;9.160;2023-04-25T04:05:09;9.50;99.90
3466;DHT22;1747;48.884;9.160;2023-04-25T04:07:35;9.50;99.90
3466;DHT22;1747;48.884;9.160;2023-04-25T04:10:06;9.40;99.90
3466;DHT22;1747;48.884;9.160;2023-04-25T04:12:33;9.40;99.90
3466;DHT22;1747;48.884;9.160;2023-04-25T04:15:01;9.50;99.90
3466;DHT22;1747;48.884;9.160;2023-04-25T04:17:29;9.60;99.90
3466;DHT22;1747;48.884;9.160;2023-04-25T04:19:56;9.60;99.90
3466;DHT22;1747;48.884;9.160;2023-04-25T04:22:23;9.70;99.90
3466;DHT22;1747;48.884;9.160;2023-04-25T04:24:50;9.70;99.90
3466;DHT22;1747;48.884;9.160;2023-04-25T04:27:18;9.70;99.90
3466;DHT22;1747;48.884;9.160;2023-04-25T04:29:45;9.70;99.90
3466;DHT22;1747;48.884;9.160;2023-04-25T04:32:14;9.60;99.90
3466;DHT22;1747;48.884;9.160;2023-04-25T04:34:41;9.60;99.90
3466;DHT22;1747;48.884;9.160;2023-04-25T04:37:08;9.50;99.90
3466;DHT22;1747;48.884;9.160;2023-04-25T04:39:35;9.40;99.90
3466;DHT22;1747;48.884;9.160;2023-04-25T04:42:02;9.40;99.90
3466;DHT22;1747;48.884;9.160;2023-04-25T04:44:30;9.50;99.90
3466;DHT22;1747;48.884;9.160;2023-04-25T04:46:58;9.40;99.90
3466;DHT22;1747;48.884;9.160;2023-04-25T04:49:26;9.50;99.90
3466;DHT22;1747;48.884;9.160;2023-04-25T04:51:53;9.60;99.90
3466;DHT22;1747;48.884;9.160;2023-04-25T04:54:21;9.60;99.90
3466;DHT22;1747;48.884;9.160;2023-04-25T04:56:47;9.60;99.90
3466;DHT22;1747;48.884;9.160;2023-04-25T04:59:14;9.50;99.90
3466;DHT22;1747;48.884;9.160;2023-04-25T05:01:41;9.50;99.90
3466;DHT22;1747;48.884;9.160;2023-04-25T05:04:08;9.50;99.90
3466;DHT22;1747;48.884;9.160;2023-04-25T05:06:37;9.50;99.90
3466;DHT22;1747;48.884;9.160;2023-04-25T05:09:03;9.60;99.90
3466;DHT22;1747;48.884;9.160;2023-04-25T05:11:30;9.70;99.90
3466;DHT22;1747;48.884;9.160;2023-04-25T05:13:57;9.70;99.90
3466;DHT22;1747;48.884;9.160;2023-04-25T05:16:24;9.80;99.90
3466;DHT22;1747;48.884;9.160;2023-04-25T05:18:51;9.80;99.90
3466;DHT22;1747;48.884;9.160;2023-04-25T05:21:18;9.90;99.90
3466;DHT22;1747;48.884;9.160;2023-04-25T05:23:46;9.90;99.90
3466;DHT22;1747;48.884;9.160;2023-04-25T05:26:13;9.90;99.90
3466;DHT22;1747;48.884;9.160;2023-04-25T05:28:40;10.00;99.90
3466;DHT22;1747;48.884;9.160;2023-04-25T05:31:09;10.10;99.90
3466;DHT22;1747;48.884;9.160;2023-04-25T05:33:36;10.10;99.90
3466;DHT22;1747;48.884;9.160;2023-04-25T05:36:03;10.10;99.90
3466;DHT22;1747;48.884;9.160;2023-04-25T05:38:30;10.10;99.90
3466;DHT22;1747;48.884;9.160;2023-04-25T05:40:58;10.00;99.90
3466;DHT22;1747;48.884;9.160;2023-04-25T05:43:25;10.10;99.90
3466;DHT22;1747;48.884;9.160;2023-04-25T05:45:52;10.00;99.90
3466;DHT22;1747;48.884;9.160;2023-04-25T05:48:19;10.00;99.90
3466;DHT22;1747;48.884;9.160;2023-04-25T05:50:46;10.00;99.90
3466;DHT22;1747;48.884;9.160;2023-04-25T05:53:12;10.00;99.90
3466;DHT22;1747;48.884;9.160;2023-04-25T05:55:39;10.00;99.90
3466;DHT22;1747;48.884;9.160;2023-04-25T05:58:07;10.10;99.90
3466;DHT22;1747;48.884;9.160;2023-04-25T06:00:34;10.10;99.90
3466;DHT22;1747;48.884;9.160;2023-04-25T06:03:01;10.00;99.90
3466;DHT22;1747;48.884;9.160;2023-04-25T06:05:28;10.00;99.90
3466;DHT22;1747;48.884;9.160;2023-04-25T06:07:55;10.00;99.90
3466;DHT22;1747;48.884;9.160;2023-04-25T06:10:22;10.00;99.90
3466;DHT22;1747;48.884;9.160;2023-04-25T06:12:49;10.20;99.90
3466;DHT22;1747;48.884;9.160;2023-04-25T06:15:17;10.20;99.90
3466;DHT22;1747;48.884;9.160;2023-04-25T06:17:44;10.40;99.90
3466;DHT22;1747;48.884;9.160;2023-04-25T06:20:11;10.40;99.90
3466;DHT22;1747;48.884;9.160;2023-04-25T06:22:38;10.50;99.90
3466;DHT22;1747;48.884;9.160;2023-04-25T06:25:05;10.60;99.90
3466;DHT22;1747;48.884;9.160;2023-04-25T06:27:32;10.60;99.90
3466;DHT22;1747;48.884;9.160;2023-04-25T06:29:59;10.70;99.90
3466;DHT22;1747;48.884;9.160;2023-04-25T06:32:27;10.70;99.90
3466;DHT22;1747;48.884;9.160;2023-04-25T06:34:55;10.90;99.90
3466;DHT22;1747;48.884;9.160;2023-04-25T06:37:22;11.00;99.90
3466;DHT22;1747;48.884;9.160;2023-04-25T06:39:49;11.00;99.90
3466;DHT22;1747;48.884;9.160;2023-04-25T06:42:15;11.20;99.90
3466;DHT22;1747;48.884;9.160;2023-04-25T06:44:42;11.40;99.90
3466;DHT22;1747;48.884;9.160;2023-04-25T06:47:09;11.30;99.90
3466;DHT22;1747;48.884;9.160;2023-04-25T06:49:37;11.20;99.90
3466;DHT22;1747;48.884;9.160;2023-04-25T06:52:04;11.40;99.90
3466;DHT22;1747;48.884;9.160;2023-04-25T06:54:31;11.50;99.90
3466;DHT22;1747;48.884;9.160;2023-04-25T06:56:57;11.70;99.90
3466;DHT22;1747;48.884;9.160;2023-04-25T06:59:26;11.70;99.90
3466;DHT22;1747;48.884;9.160;2023-04-25T07:01:53;11.60;99.90
3466;DHT22;1747;48.884;9.160;2023-04-25T07:04:20;11.60;99.90
3466;DHT22;1747;48.884;9.160;2023-04-25T07:06:48;11.50;99.90
3466;DHT22;1747;48.884;9.160;2023-04-25T07:09:15;11.40;99.90
3466;DHT22;1747;48.884;9.160;2023-04-25T07:11:42;11.30;99.90
3466;DHT22;1747;48.884;9.160;2023-04-25T07:14:08;11.30;99.90
3466;DHT22;1747;48.884;9.160;2023-04-25T07:16:35;11.30;99.90
3466;DHT22;1747;48.884;9.160;2023-04-25T07:19:02;11.30;99.90
3466;DHT22;1747;48.884;9.160;2023-04-25T07:21:29;11.20;99.90
3466;DHT22;1747;48.884;9.160;2023-04-25T07:23:58;11.20;99.90
3466;DHT22;1747;48.884;9.160;2023-04-25T07:26:25;11.20;99.90
3466;DHT22;1747;48.884;9.160;2023-04-25T07:28:52;11.10;99.90
3466;DHT22;1747;48.884;9.160;2023-04-25T07:31:20;11.20;99.90
3466;DHT22;1747;48.884;9.160;2023-04-25T07:33:46;11.10;99.90
3466;DHT22;1747;48.884;9.160;2023-04-25T07:36:13;11.10;99.90
3466;DHT22;1747;48.884;9.160;2023-04-25T07:38:40;11.20;99.90
3466;DHT22;1747;48.884;9.160;2023-04-25T07:41:08;11.20;99.90
3466;DHT22;1747;48.884;9.160;2023-04-25T07:43:35;11.10;99.90
3466;DHT22;1747;48.884;9.160;2023-04-25T07:46:02;11.10;99.90
3466;DHT22;1747;48.884;9.160;2023-04-25T07:48:29;11.20;99.90
3466;DHT22;1747;48.884;9.160;2023-04-25T07:50:56;11.10;99.90
3466;DHT22;1747;48.884;9.160;2023-04-25T07:53:22;11.10;99.90
3466;DHT22;1747;48.884;9.160;2023-04-25T07:55:50;11.20;99.90
3466;DHT22;1747;48.884;9.160;2023-04-25T07:58:18;11.20;99.90
3466;DHT22;1747;48.884;9.160;2023-04-25T08:00:46;11.20;99.90
3466;DHT22;1747;48.884;9.160;2023-04-25T08:03:13;11.10;99.90
3466;DHT22;1747;48.884;9.160;2023-04-25T08:05:40;11.20;99.90
3466;DHT22;1747;48.884;9.160;2023-04-25T08:08:07;11.10;99.90
3466;DHT22;1747;48.884;9.160;2023-04-25T08:10:34;11.00;99.90
3466;DHT22;1747;48.884;9.160;2023-04-25T08:13:01;10.90;99.90
3466;DHT22;1747;48.884;9.160;2023-04-25T08:15:29;10.90;99.90
3466;DHT22;1747;48.884;9.160;2023-04-25T08:17:56;10.80;99.90
3466;DHT22;1747;48.884;9.160;2023-04-25T08:20:23;10.80;99.90
3466;DHT22;1747;48.884;9.160;2023-04-25T08:22:50;10.80;99.90
3466;DHT22;1747;48.884;9.160;2023-04-25T08:25:17;10.80;99.90
3466;DHT22;1747;48.884;9.160;2023-04-25T08:27:44;10.60;99.90
3466;DHT22;1747;48.884;9.160;2023-04-25T08:30:11;10.70;99.90
3466;DHT22;1747;48.884;9.160;2023-04-25T08:32:39;10.60;99.90
3466;DHT22;1747;48.884;9.160;2023-04-25T08:35:07;10.50;99.90
3466;DHT22;1747;48.884;9.160;2023-04-25T08:37:33;10.70;99.90
3466;DHT22;1747;48.884;9.160;2023-04-25T08:40:01;10.60;99.90
3466;DHT22;1747;48.884;9.160;2023-04-25T08:42:33;10.60;99.90
3466;DHT22;1747;48.884;9.160;2023-04-25T08:45:01;10.50;99.90
3466;DHT22;1747;48.884;9.160;2023-04-25T08:47:30;10.40;99.90
3466;DHT22;1747;48.884;9.160;2023-04-25T08:50:02;10.30;99.90
3466;DHT22;1747;48.884;9.160;2023-04-25T08:52:35;10.10;99.90
3466;DHT22;1747;48.884;9.160;2023-04-25T08:55:03;10.00;99.90
3466;DHT22;1747;48.884;9.160;2023-04-25T08:57:31;9.90;99.90
3466;DHT22;1747;48.884;9.160;2023-04-25T08:59:58;9.80;99.90
3466;DHT22;1747;48.884;9.160;2023-04-25T09:02:26;9.70;99.90
3466;DHT22;1747;48.884;9.160;2023-04-25T09:04:53;9.70;99.90
3466;DHT22;1747;48.884;9.160;2023-04-25T09:07:22;9.60;99.90
3466;DHT22;1747;48.884;9.160;2023-04-25T09:09:51;9.60;99.90
3466;DHT22;1747;48.884;9.160;2023-04-25T09:12:18;9.50;99.90
3466;DHT22;1747;48.884;9.160;2023-04-25T09:15:02;9.40;99.90
3466;DHT22;1747;48.884;9.160;2023-04-25T09:17:30;9.40;99.90
3466;DHT22;1747;48.884;9.160;2023-04-25T09:20:06;9.40;99.90
3466;DHT22;1747;48.884;9.160;2023-04-25T09:22:35;9.40;99.90
3466;DHT22;1747;48.884;9.160;2023-04-25T09:25:04;9.50;99.90
3466;DHT22;1747;48.884;9.160;2023-04-25T09:27:34;9.60;99.90
3466;DHT22;1747;48.884;9.160;2023-04-25T09:30:01;9.80;99.90
3466;DHT22;1747;48.884;9.160;2023-04-25T09:32:28;9.90;99.90
3466;DHT22;1747;48.884;9.160;2023-04-25T09:34:56;10.00;99.90
3466;DHT22;1747;48.884;9.160;2023-04-25T09:37:25;10.10;99.90
3466;DHT22;1747;48.884;9.160;2023-04-25T09:39:55;10.10;99.90
3466;DHT22;1747;48.884;9.160;2023-04-25T09:42:23;10.10;99.90
3466;DHT22;1747;48.884;9.160;2023-04-25T09:44:52;10.20;99.90
3466;DHT22;1747;48.884;9.160;2023-04-25T09:47:19;10.10;99.90
3466;DHT22;1747;48.884;9.160;2023-04-25T09:49:49;10.10;99.90
3466;DHT22;1747;48.884;9.160;2023-04-25T09:52:17;10.10;99.90
3466;DHT22;1747;48.884;9.160;2023-04-25T09:54:44;10.10;99.90
3466;DHT22;1747;48.884;9.160;2023-04-25T09:57:14;10.20;99.90
3466;DHT22;1747;48.884;9.160;2023-04-25T09:59:45;10.10;99.90
3466;DHT22;1747;48.884;9.160;2023-04-25T10:02:14;10.20;99.90
3466;DHT22;1747;48.884;9.160;2023-04-25T10:04:41;10.20;99.90
3466;DHT22;1747;48.884;9.160;2023-04-25T10:07:10;10.20;99.90
3466;DHT22;1747;48.884;9.160;2023-04-25T10:09:38;10.00;99.90
3466;DHT22;1747;48.884;9.160;2023-04-25T10:12:06;10.00;99.90
3466;DHT22;1747;48.884;9.160;2023-04-25T10:14:35;9.80;99.90
3466;DHT22;1747;48.884;9.160;2023-04-25T10:17:02;9.80;99.90
3466;DHT22;1747;48.884;9.160;2023-04-25T10:19:29;9.60;99.90
3466;DHT22;1747;48.884;9.160;2023-04-25T10:22:03;9.50;99.90
3466;DHT22;1747;48.884;9.160;2023-04-25T10:24:31;9.30;99.90
3466;DHT22;1747;48.884;9.160;2023-04-25T10:26:58;9.30;99.90
3466;DHT22;1747;48.884;9.160;2023-04-25T10:29:26;9.20;99.90
3466;DHT22;1747;48.884;9.160;2023-04-25T10:31:54;9.20;99.90
3466;DHT22;1747;48.884;9.160;2023-04-25T10:34:24;9.20;99.90
3466;DHT22;1747;48.884;9.160;2023-04-25T10:36:52;9.30;99.90
3466;DHT22;1747;48.884;9.160;2023-04-25T10:39:23;9.20;99.90
3466;DHT22;1747;48.884;9.160;2023-04-25T10:41:56;9.20;99.90
3466;DHT22;1747;48.884;9.160;2023-04-25T10:44:26;9.20;99.90
3466;DHT22;1747;48.884;9.160;2023-04-25T10:46:56;9.20;99.90
3466;DHT22;1747;48.884;9.160;2023-04-25T10:49:31;9.30;99.90
3466;DHT22;1747;48.884;9.160;2023-04-25T10:52:18;9.40;99.90
3466;DHT22;1747;48.884;9.160;2023-04-25T10:54:52;9.40;99.90
3466;DHT22;1747;48.884;9.160;2023-04-25T10:57:36;9.40;99.90
3466;DHT22;1747;48.884;9.160;2023-04-25T11:00:08;9.40;99.90
3466;DHT22;1747;48.884;9.160;2023-04-25T11:02:46;9.50;99.90
3466;DHT22;1747;48.884;9.160;2023-04-25T11:05:22;9.60;99.90
3466;DHT22;1747;48.884;9.160;2023-04-25T11:07:53;9.60;99.90
3466;DHT22;1747;48.884;9.160;2023-04-25T11:10:25;9.80;99.90
3466;DHT22;1747;48.884;9.160;2023-04-25T11:12:52;9.90;99.90
3466;DHT22;1747;48.884;9.160;2023-04-25T11:15:19;9.80;99.90
3466;DHT22;1747;48.884;9.160;2023-04-25T11:17:47;10.00;99.90
3466;DHT22;1747;48.884;9.160;2023-04-25T11:20:14;10.10;99.90
3466;DHT22;1747;48.884;9.160;2023-04-25T11:22:41;10.10;99.90
3466;DHT22;1747;48.884;9.160;2023-04-25T11:25:12;10.10;99.90
3466;DHT22;1747;48.884;9.160;2023-04-25T11:27:49;10.10;99.90
3466;DHT22;1747;48.884;9.160;2023-04-25T11:30:17;10.10;99.90
3466;DHT22;1747;48.884;9.160;2023-04-25T11:32:44;10.00;99.90
3466;DHT22;1747;48.884;9.160;2023-04-25T11:35:12;9.90;99.90
3466;DHT22;1747;48.884;9.160;2023-04-25T11:37:40;9.80;99.90
3466;DHT22;1747;48.884;9.160;2023-04-25T11:40:08;9.80;99.90
3466;DHT22;1747;48.884;9.160;2023-04-25T11:42:37;9.90;99.90
3466;DHT22;1747;48.884;9.160;2023-04-25T11:45:05;10.00;99.90
3466;DHT22;1747;48.884;9.160;2023-04-25T11:47:35;10.10;99.90
3466;DHT22;1747;48.884;9.160;2023-04-25T11:50:03;10.20;99.90
3466;DHT22;1747;48.884;9.160;2023-04-25T11:52:39;10.10;99.90
3466;DHT22;1747;48.884;9.160;2023-04-25T11:55:07;10.10;99.90
3466;DHT22;1747;48.884;9.160;2023-04-25T11:57:35;10.00;99.90
3466;DHT22;1747;48.884;9.160;2023-04-25T12:00:07;10.00;99.90
3466;DHT22;1747;48.884;9.160;2023-04-25T12:02:35;10.00;99.90
3466;DHT22;1747;48.884;9.160;2023-04-25T12:05:02;9.90;99.90
3466;DHT22;1747;48.884;9.160;2023-04-25T12:07:29;9.70;99.90
3466;DHT22;1747;48.884;9.160;2023-04-25T12:09:57;9.70;99.90
3466;DHT22;1747;48.884;9.160;2023-04-25T12:12:27;9.70;99.90
3466;DHT22;1747;48.884;9.160;2023-04-25T12:14:54;9.70;99.90
3466;DHT22;1747;48.884;9.160;2023-04-25T12:17:22;9.70;99.90
3466;DHT22;1747;48.884;9.160;2023-04-25T12:19:49;9.70;99.90
3466;DHT22;1747;48.884;9.160;2023-04-25T12:22:23;9.80;99.90
3466;DHT22;1747;48.884;9.160;2023-04-25T12:24:50;9.90;99.90
3466;DHT22;1747;48.884;9.160;2023-04-25T12:27:20;10.10;99.90
3466;DHT22;1747;48.884;9.160;2023-04-25T12:29:51;10.30;99.90
3466;DHT22;1747;48.884;9.160;2023-04-25T12:32:18;10.50;99.90
3466;DHT22;1747;48.884;9.160;2023-04-25T12:34:45;10.90;99.90
3466;DHT22;1747;48.884;9.160;2023-04-25T12:37:12;11.20;99.90
3466;DHT22;1747;48.884;9.160;2023-04-25T12:39:39;11.50;99.90
3466;DHT22;1747;48.884;9.160;2023-04-25T12:42:06;11.70;99.90
3466;DHT22;1747;48.884;9.160;2023-04-25T12:44:38;11.80;99.90
3466;DHT22;1747;48.884;9.160;2023-04-25T12:47:05;11.90;99.90
3466;DHT22;1747;48.884;9.160;2023-04-25T12:49:32;12.00;99.90
3466;DHT22;1747;48.884;9.160;2023-04-25T12:51:59;12.20;99.90
3466;DHT22;1747;48.884;9.160;2023-04-25T12:54:26;12.40;99.90
3466;DHT22;1747;48.884;9.160;2023-04-25T12:56:53;12.60;99.90
3466;DHT22;1747;48.884;9.160;2023-04-25T12:59:20;12.90;99.90
3466;DHT22;1747;48.884;9.160;2023-04-25T13:01:48;12.80;99.90
3466;DHT22;1747;48.884;9.160;2023-04-25T13:04:15;13.00;99.90
3466;DHT22;1747;48.884;9.160;2023-04-25T13:06:43;12.90;99.90
3466;DHT22;1747;48.884;9.160;2023-04-25T13:09:09;12.80;99.90
3466;DHT22;1747;48.884;9.160;2023-04-25T13:11:37;12.80;99.90
3466;DHT22;1747;48.884;9.160;2023-04-25T13:14:04;13.30;99.90
3466;DHT22;1747;48.884;9.160;2023-04-25T13:16:32;13.50;99.90
3466;DHT22;1747;48.884;9.160;2023-04-25T13:19:00;13.70;99.90
3466;DHT22;1747;48.884;9.160;2023-04-25T13:21:29;13.60;99.90
3466;DHT22;1747;48.884;9.160;2023-04-25T13:23:56;13.40;99.90
3466;DHT22;1747;48.884;9.160;2023-04-25T13:26:23;13.20;99.90
3466;DHT22;1747;48.884;9.160;2023-04-25T13:28:49;13.20;99.90
3466;DHT22;1747;48.884;9.160;2023-04-25T13:31:16;13.00;99.90
3466;DHT22;1747;48.884;9.160;2023-04-25T13:33:43;13.00;99.90
3466;DHT22;1747;48.884;9.160;2023-04-25T13:36:11;12.90;99.90
3466;DHT22;1747;48.884;9.160;2023-04-25T13:38:38;13.10;99.90
3466;DHT22;1747;48.884;9.160;2023-04-25T13:41:07;13.20;99.90
3466;DHT22;1747;48.884;9.160;2023-04-25T13:43:36;13.30;99.90
3466;DHT22;1747;48.884;9.160;2023-04-25T13:46:03;13.30;99.90
3466;DHT22;1747;48.884;9.160;2023-04-25T13:48:30;13.40;99.90
3466;DHT22;1747;48.884;9.160;2023-04-25T13:50:57;13.40;99.90
3466;DHT22;1747;48.884;9.160;2023-04-25T13:53:25;13.60;99.90
3466;DHT22;1747;48.884;9.160;2023-04-25T13:55:52;13.80;99.90
3466;DHT22;1747;48.884;9.160;2023-04-25T14:17:08;14.30;99.90
3466;DHT22;1747;48.884;9.160;2023-04-25T14:19:35;14.60;99.90
3466;DHT22;1747;48.884;9.160;2023-04-25T14:22:04;15.00;99.90
3466;DHT22;1747;48.884;9.160;2023-04-25T14:24:31;15.20;99.90
3466;DHT22;1747;48.884;9.160;2023-04-25T14:26:58;15.90;99.90
3466;DHT22;1747;48.884;9.160;2023-04-25T14:29:25;16.40;99.90
3466;DHT22;1747;48.884;9.160;2023-04-25T14:31:52;16.60;99.90
3466;DHT22;1747;48.884;9.160;2023-04-25T14:34:21;16.20;99.90
3466;DHT22;1747;48.884;9.160;2023-04-25T14:36:47;15.70;99.90
3466;DHT22;1747;48.884;9.160;2023-04-25T14:39:14;15.40;99.90
3466;DHT22;1747;48.884;9.160;2023-04-25T14:41:42;15.30;99.90
3466;DHT22;1747;48.884;9.160;2023-04-25T14:44:08;15.30;99.90
3466;DHT22;1747;48.884;9.160;2023-04-25T14:46:36;15.30;99.90
3466;DHT22;1747;48.884;9.160;2023-04-25T14:49:03;15.30;99.90
3466;DHT22;1747;48.884;9.160;2023-04-25T14:51:31;15.00;99.90
3466;DHT22;1747;48.884;9.160;2023-04-25T14:53:58;14.80;99.90
3466;DHT22;1747;48.884;9.160;2023-04-25T14:56:25;14.40;99.90
3466;DHT22;1747;48.884;9.160;2023-04-25T14:58:52;14.30;99.90
3466;DHT22;1747;48.884;9.160;2023-04-25T15:01:19;14.30;99.90
3466;DHT22;1747;48.884;9.160;2023-04-25T15:03:47;14.30;99.90
3466;DHT22;1747;48.884;9.160;2023-04-25T15:06:14;14.50;99.90
3466;DHT22;1747;48.884;9.160;2023-04-25T15:08:43;14.40;99.90
3466;DHT22;1747;48.884;9.160;2023-04-25T15:11:10;14.60;99.90
3466;DHT22;1747;48.884;9.160;2023-04-25T15:13:37;15.10;99.90
3466;DHT22;1747;48.884;9.160;2023-04-25T15:16:04;15.40;99.90
3466;DHT22;1747;48.884;9.160;2023-04-25T15:18:32;15.50;99.90
3466;DHT22;1747;48.884;9.160;2023-04-25T15:20:59;15.50;99.90
3466;DHT22;1747;48.884;9.160;2023-04-25T15:23:25;15.20;99.90
3466;DHT22;1747;48.884;9.160;2023-04-25T15:25:54;15.20;99.90
3466;DHT22;1747;48.884;9.160;2023-04-25T15:28:21;15.10;99.90
3466;DHT22;1747;48.884;9.160;2023-04-25T15:30:47;14.90;99.90
3466;DHT22;1747;48.884;9.160;2023-04-25T15:33:14;14.90;99.90
3466;DHT22;1747;48.884;9.160;2023-04-25T15:35:44;14.90;99.90
3466;DHT22;1747;48.884;9.160;2023-04-25T15:38:11;14.70;99.90
3466;DHT22;1747;48.884;9.160;2023-04-25T15:40:38;14.60;99.90
3466;DHT22;1747;48.884;9.160;2023-04-25T15:43:06;14.50;99.90
3466;DHT22;1747;48.884;9.160;2023-04-25T15:45:39;14.40;99.90
3466;DHT22;1747;48.884;9.160;2023-04-25T15:48:06;14.40;99.90
3466;DHT22;1747;48.884;9.160;2023-04-25T15:50:33;14.40;99.90
3466;DHT22;1747;48.884;9.160;2023-04-25T15:53:02;14.80;99.90
3466;DHT22;1747;48.884;9.160;2023-04-25T15:55:29;15.00;99.90
3466;DHT22;1747;48.884;9.160;2023-04-25T15:57:56;15.10;99.90
3466;DHT22;1747;48.884;9.160;2023-04-25T16:00:24;15.00;99.90
3466;DHT22;1747;48.884;9.160;2023-04-25T16:02:51;15.00;99.90
3466;DHT22;1747;48.884;9.160;2023-04-25T16:05:18;14.90;99.90
3466;DHT22;1747;48.884;9.160;2023-04-25T16:07:45;14.70;99.90
3466;DHT22;1747;48.884;9.160;2023-04-25T16:10:13;14.50;99.90
3466;DHT22;1747;48.884;9.160;2023-04-25T16:12:44;14.40;99.90
3466;DHT22;1747;48.884;9.160;2023-04-25T16:15:13;14.30;99.90
3466;DHT22;1747;48.884;9.160;2023-04-25T16:17:41;14.20;99.90
3466;DHT22;1747;48.884;9.160;2023-04-25T16:20:10;13.90;99.90
3466;DHT22;1747;48.884;9.160;2023-04-25T16:22:38;13.90;99.90
3466;DHT22;1747;48.884;9.160;2023-04-25T16:25:06;13.90;99.90
3466;DHT22;1747;48.884;9.160;2023-04-25T16:27:34;14.00;99.90
3466;DHT22;1747;48.884;9.160;2023-04-25T16:30:03;13.90;99.90
3466;DHT22;1747;48.884;9.160;2023-04-25T16:32:32;14.00;99.90